Crescent Valley, Washington
Current Conditions -  °F | °C
As of 12:53 AM on Sunday 26 Oct 2014 (Local Time) from KTIW Reporting Station
Scattered Clouds Scattered Clouds  
Wind Chill: 51°   Ceiling: Unl
Heat Index: 51°   Visibility: 10mi
Dew Point: 46°   Wind: 13mph
Humidity: 83%   Direction: 190°S
Pressure: 29.81"   Gusts: NA
Location:  47.2986°N, 122.616°W
Report Text: KTIW 260753Z AUTO 19011KT 10SM SCT037 SCT044 11/08 A2981 RMK AO2 SLP095 T01060078 401670083
Loading
Personal Weather Stations






























Interactive Weather Map
Tropical Storm Tracking
New forecast layout! Learn more

10-Day Weather Forecast

Advertisements
Track Severe Weather on mobile